createdAt,value
2018-12-15T00:01:59.658Z,5.20
2018-12-15T00:04:28.336Z,5.20
2018-12-15T00:06:57.043Z,5.10
2018-12-15T00:09:25.880Z,5.10
2018-12-15T00:11:54.430Z,5.20
2018-12-15T00:14:23.151Z,5.20
2018-12-15T00:16:51.782Z,5.30
2018-12-15T00:19:20.325Z,5.30
2018-12-15T00:21:48.857Z,5.10
2018-12-15T00:24:17.505Z,5.10
2018-12-15T00:26:46.044Z,5.10
2018-12-15T00:29:14.763Z,5.10
2018-12-15T00:31:43.398Z,5.20
2018-12-15T00:34:12.033Z,5.20
2018-12-15T00:36:40.579Z,5.10
2018-12-15T00:39:09.304Z,5.20
2018-12-15T00:41:38.335Z,5.00
2018-12-15T00:44:07.166Z,5.10
2018-12-15T00:46:35.801Z,5.00
2018-12-15T00:49:04.632Z,5.00
2018-12-15T00:51:33.368Z,5.00
2018-12-15T00:54:02.099Z,4.90
2018-12-15T00:56:30.698Z,4.80
2018-12-15T00:58:59.370Z,4.90
2018-12-15T01:01:28.202Z,4.90
2018-12-15T01:03:57.019Z,4.90
2018-12-15T01:06:25.670Z,4.80
2018-12-15T01:08:54.501Z,4.90
2018-12-15T01:11:23.285Z,4.80
2018-12-15T01:13:51.972Z,4.90
2018-12-15T01:16:20.605Z,4.90
2018-12-15T01:18:49.241Z,4.90
2018-12-15T01:21:17.846Z,4.90
2018-12-15T01:23:46.515Z,4.90
2018-12-15T01:26:15.076Z,4.90
2018-12-15T01:28:43.783Z,4.80
2018-12-15T01:31:12.615Z,4.80
2018-12-15T01:33:41.447Z,4.80
2018-12-15T01:36:10.082Z,4.80
2018-12-15T01:38:38.718Z,4.90
2018-12-15T01:41:07.549Z,4.80
2018-12-15T01:43:36.307Z,4.90
2018-12-15T01:46:05.213Z,4.80
2018-12-15T01:48:34.046Z,4.80
2018-12-15T01:51:02.881Z,4.80
2018-12-15T01:53:31.710Z,4.80
2018-12-15T01:56:00.255Z,4.80
2018-12-15T01:58:28.980Z,4.90
2018-12-15T02:00:57.812Z,5.00
2018-12-15T02:03:26.376Z,4.90
2018-12-15T02:05:55.489Z,4.90
2018-12-15T02:08:24.179Z,4.80
2018-12-15T02:10:52.920Z,4.90
2018-12-15T02:13:21.582Z,5.00
2018-12-15T02:15:49.966Z,5.10
2018-12-15T02:18:18.539Z,5.00
2018-12-15T02:20:47.294Z,4.90
2018-12-15T02:23:16.121Z,4.80
2018-12-15T02:25:44.757Z,4.80
2018-12-15T02:28:13.588Z,4.60
2018-12-15T02:30:42.421Z,4.80
2018-12-15T02:33:11.057Z,4.80
2018-12-15T02:35:39.693Z,4.80
2018-12-15T02:38:08.458Z,4.70
2018-12-15T02:40:37.163Z,4.80
2018-12-15T02:43:05.763Z,5.10
2018-12-15T02:45:34.296Z,5.00
2018-12-15T02:48:02.940Z,5.00
2018-12-15T02:50:31.682Z,4.90
2018-12-15T02:53:00.731Z,5.00
2018-12-15T02:55:29.366Z,5.10
2018-12-15T02:57:58.200Z,5.00
2018-12-15T03:00:26.833Z,5.10
2018-12-15T03:02:55.379Z,5.00
2018-12-15T03:05:24.021Z,4.90
2018-12-15T03:07:52.659Z,5.00
2018-12-15T03:10:21.348Z,5.00
2018-12-15T03:12:50.014Z,4.90
2018-12-15T03:15:18.554Z,4.90
2018-12-15T03:17:49.008Z,5.00
2018-12-15T03:20:17.809Z,5.10
2018-12-15T03:22:46.386Z,5.20
2018-12-15T03:25:15.313Z,5.20
2018-12-15T03:27:44.019Z,5.20
2018-12-15T03:30:12.750Z,5.30
2018-12-15T03:32:41.458Z,5.30
2018-12-15T03:35:09.999Z,5.20
2018-12-15T03:37:38.529Z,5.10
2018-12-15T03:40:07.358Z,5.30
2018-12-15T03:42:36.192Z,5.30
2018-12-15T03:45:05.437Z,5.30
2018-12-15T03:47:34.052Z,5.20
2018-12-15T03:50:02.887Z,5.20
2018-12-15T03:52:31.519Z,5.10
2018-12-15T03:55:00.065Z,5.20
2018-12-15T03:57:28.790Z,5.10
2018-12-15T03:59:57.429Z,5.10
2018-12-15T04:02:25.930Z,5.10
2018-12-15T04:04:54.699Z,5.00
2018-12-15T04:07:23.333Z,4.90
2018-12-15T04:09:52.132Z,4.90
2018-12-15T04:12:20.666Z,5.00
2018-12-15T04:14:49.311Z,4.90
2018-12-15T04:17:18.051Z,5.00
2018-12-15T04:19:46.595Z,4.90
2018-12-15T04:22:20.121Z,4.80
2018-12-15T04:24:48.825Z,4.90
2018-12-15T04:27:17.450Z,5.10
2018-12-15T04:29:46.124Z,5.10
2018-12-15T04:32:14.800Z,5.20
2018-12-15T04:34:43.435Z,5.30
2018-12-15T04:37:12.043Z,5.20
2018-12-15T04:39:40.706Z,5.30
2018-12-15T04:42:09.323Z,5.40
2018-12-15T04:44:38.173Z,5.30
2018-12-15T04:47:07.076Z,5.20
2018-12-15T04:49:35.841Z,5.30
2018-12-15T04:52:05.068Z,5.20
2018-12-15T04:54:33.698Z,5.30
2018-12-15T04:57:02.339Z,5.20
2018-12-15T04:59:30.957Z,5.20
2018-12-15T05:01:59.567Z,5.20
2018-12-15T05:04:28.240Z,5.30
2018-12-15T05:06:56.939Z,5.20
2018-12-15T05:09:25.587Z,5.30
2018-12-15T05:11:54.302Z,5.20
2018-12-15T05:14:22.978Z,5.40
2018-12-15T05:16:51.618Z,5.10
2018-12-15T05:19:20.176Z,5.00
2018-12-15T05:21:48.860Z,5.00
2018-12-15T05:24:17.521Z,5.00
2018-12-15T05:26:45.962Z,5.20
2018-12-15T05:29:14.504Z,5.10
2018-12-15T05:31:43.232Z,5.00
2018-12-15T05:34:11.834Z,5.20
2018-12-15T05:36:40.475Z,5.40
2018-12-15T05:39:09.140Z,5.30
2018-12-15T05:41:37.972Z,5.40
2018-12-15T05:44:06.802Z,5.40
2018-12-15T05:46:35.305Z,5.60
2018-12-15T05:49:04.072Z,5.50
2018-12-15T05:51:32.711Z,5.40
2018-12-15T05:54:01.260Z,5.40
2018-12-15T05:56:29.946Z,5.50
2018-12-15T05:58:58.614Z,5.50
2018-12-15T06:01:27.250Z,5.50
2018-12-15T06:03:55.885Z,5.40
2018-12-15T06:06:25.307Z,5.40
2018-12-15T06:08:54.144Z,5.30
2018-12-15T06:11:22.652Z,5.40
2018-12-15T06:13:51.297Z,5.30
2018-12-15T06:16:20.016Z,5.50
2018-12-15T06:18:48.878Z,5.50
2018-12-15T06:21:18.104Z,5.60
2018-12-15T06:23:46.742Z,5.60
2018-12-15T06:26:15.375Z,5.50
2018-12-15T06:28:44.010Z,5.70
2018-12-15T06:31:12.601Z,5.70
2018-12-15T06:33:41.281Z,5.60
2018-12-15T06:36:09.917Z,5.60
2018-12-15T06:38:38.623Z,5.70
2018-12-15T06:41:07.384Z,5.80
2018-12-15T06:43:36.526Z,5.70
2018-12-15T06:46:05.638Z,5.70
2018-12-15T06:48:38.172Z,5.70
2018-12-15T06:51:04.877Z,5.70
2018-12-15T06:53:33.639Z,5.60
2018-12-15T06:56:02.223Z,5.60
2018-12-15T06:58:30.978Z,5.60
2018-12-15T07:00:59.532Z,5.50
2018-12-15T07:03:28.249Z,5.50
2018-12-15T07:05:57.150Z,5.50
2018-12-15T07:08:25.823Z,5.40
2018-12-15T07:10:54.548Z,5.40
2018-12-15T07:13:23.385Z,5.50
2018-12-15T07:15:52.024Z,5.60
2018-12-15T07:18:20.632Z,5.70
2018-12-15T07:20:49.154Z,5.70
2018-12-15T07:23:17.917Z,5.70
2018-12-15T07:25:47.054Z,5.60
2018-12-15T07:28:15.566Z,5.60
2018-12-15T07:30:44.532Z,5.60
2018-12-15T07:33:13.257Z,5.60
2018-12-15T07:35:41.886Z,5.60
2018-12-15T07:38:10.480Z,5.70
2018-12-15T07:40:39.158Z,5.70
2018-12-15T07:43:07.989Z,5.80
2018-12-15T07:45:36.945Z,5.70
2018-12-15T07:48:05.655Z,5.70
2018-12-15T07:50:34.293Z,5.80
2018-12-15T07:53:02.925Z,5.90
2018-12-15T07:55:31.527Z,5.70
2018-12-15T07:58:00.371Z,5.80
2018-12-15T08:00:29.029Z,5.90
2018-12-15T08:02:57.664Z,5.80
2018-12-15T08:05:26.496Z,5.80
2018-12-15T08:07:55.055Z,5.90
2018-12-15T08:10:23.963Z,5.90
2018-12-15T08:12:57.513Z,6.00
2018-12-15T08:15:26.923Z,6.00
2018-12-15T08:17:55.740Z,6.00
2018-12-15T08:20:24.435Z,6.10
2018-12-15T08:22:53.170Z,6.10
2018-12-15T08:25:21.888Z,6.20
2018-12-15T08:27:50.524Z,6.00
2018-12-15T08:30:19.212Z,5.90
2018-12-15T08:32:47.779Z,6.00
2018-12-15T08:35:16.936Z,6.10
2018-12-15T08:37:45.834Z,6.10
2018-12-15T08:40:14.595Z,6.20
2018-12-15T08:42:43.174Z,6.20
2018-12-15T08:45:11.828Z,6.10
2018-12-15T08:47:40.546Z,6.10
2018-12-15T08:50:09.406Z,6.10
2018-12-15T08:52:38.041Z,6.30
2018-12-15T08:55:06.949Z,6.40
2018-12-15T08:57:35.710Z,6.60
2018-12-15T09:00:05.330Z,6.70
2018-12-15T09:02:33.958Z,6.50
2018-12-15T09:05:02.516Z,6.50
2018-12-15T09:07:31.230Z,6.50
2018-12-15T09:09:59.830Z,6.60
2018-12-15T09:12:28.699Z,6.70
2018-12-15T09:14:57.333Z,6.80
2018-12-15T09:17:25.968Z,7.00
2018-12-15T09:19:54.603Z,7.00
2018-12-15T09:22:23.631Z,7.00
2018-12-15T09:24:52.268Z,7.00
2018-12-15T09:27:20.902Z,7.00
2018-12-15T09:29:49.514Z,7.00
2018-12-15T09:32:18.178Z,6.90
2018-12-15T09:34:46.724Z,6.90
2018-12-15T09:37:15.445Z,7.10
2018-12-15T09:39:43.937Z,7.20
2018-12-15T09:42:12.676Z,7.20
2018-12-15T09:44:41.224Z,7.20
2018-12-15T09:47:09.959Z,7.20
2018-12-15T09:49:38.819Z,7.20
2018-12-15T09:52:07.453Z,7.30
2018-12-15T09:54:36.285Z,7.40
2018-12-15T09:57:05.118Z,7.40
2018-12-15T09:59:33.947Z,7.50
2018-12-15T10:02:02.787Z,7.70
2018-12-15T10:04:31.330Z,7.80
2018-12-15T10:07:00.025Z,7.80
2018-12-15T10:09:28.687Z,7.80
2018-12-15T10:11:57.327Z,7.80
2018-12-15T10:14:25.959Z,7.80
2018-12-15T10:16:54.594Z,7.80
2018-12-15T10:19:24.395Z,7.80
2018-12-15T10:21:53.503Z,7.90
2018-12-15T10:24:22.247Z,7.90
2018-12-15T10:26:50.907Z,8.00
2018-12-15T10:29:25.151Z,8.00
2018-12-15T10:35:01.383Z,8.20
2018-12-15T10:37:30.084Z,8.20
2018-12-15T10:39:58.713Z,8.50
2018-12-15T10:42:27.277Z,9.60
2018-12-15T10:44:55.850Z,9.40
2018-12-15T10:47:24.531Z,9.10
2018-12-15T10:49:53.247Z,8.90
2018-12-15T10:52:21.890Z,8.80
2018-12-15T10:54:50.455Z,8.80
2018-12-15T10:57:19.161Z,8.90
2018-12-15T10:59:47.997Z,8.90
2018-12-15T11:02:16.829Z,8.80
2018-12-15T11:04:45.460Z,8.90
2018-12-15T11:07:14.062Z,8.90
2018-12-15T11:09:42.731Z,8.90
2018-12-15T11:12:11.368Z,8.90
2018-12-15T11:14:40.199Z,8.80
2018-12-15T11:17:09.038Z,8.80
2018-12-15T11:19:37.598Z,8.90
2018-12-15T11:22:06.276Z,9.00
2018-12-15T11:24:35.133Z,8.90
2018-12-15T11:27:03.966Z,8.60
2018-12-15T11:29:32.794Z,8.60
2018-12-15T11:32:01.439Z,8.50
2018-12-15T11:34:30.026Z,8.70
2018-12-15T11:36:58.704Z,8.60
2018-12-15T11:39:27.212Z,8.70
2018-12-15T11:41:55.974Z,8.90
2018-12-15T11:44:24.520Z,9.10
2018-12-15T11:46:53.212Z,9.20
2018-12-15T11:49:21.751Z,9.20
2018-12-15T11:51:50.396Z,9.20
2018-12-15T11:54:19.350Z,9.30
2018-12-15T11:56:47.906Z,9.40
2018-12-15T11:59:16.620Z,9.40
2018-12-15T12:01:45.454Z,9.60
2018-12-15T12:04:13.956Z,9.50
2018-12-15T12:06:42.701Z,9.50
2018-12-15T12:09:11.359Z,9.50
2018-12-15T12:11:39.996Z,9.50
2018-12-15T12:14:09.089Z,9.50
2018-12-15T12:16:38.051Z,9.50
2018-12-15T12:19:06.686Z,9.50
2018-12-15T12:21:35.229Z,9.40
2018-12-15T12:24:03.957Z,9.40
2018-12-15T12:26:32.592Z,9.40
2018-12-15T12:29:01.427Z,9.40
2018-12-15T12:31:30.009Z,9.50
2018-12-15T12:33:58.698Z,9.40
2018-12-15T12:36:27.331Z,9.50
2018-12-15T12:38:55.970Z,9.50
2018-12-15T12:41:24.601Z,9.50
2018-12-15T12:43:53.162Z,9.50
2018-12-15T12:46:21.702Z,9.50
2018-12-15T12:48:50.471Z,9.60
2018-12-15T12:51:19.143Z,9.60
2018-12-15T12:53:48.056Z,9.80
2018-12-15T12:56:16.720Z,9.80
2018-12-15T12:58:45.445Z,10.00
2018-12-15T13:01:14.006Z,10.10
2018-12-15T13:03:42.718Z,10.10
2018-12-15T13:06:11.348Z,10.20
2018-12-15T13:08:40.180Z,10.20
2018-12-15T13:11:08.751Z,10.10
2018-12-15T13:13:37.417Z,10.00
2018-12-15T13:16:06.086Z,10.10
2018-12-15T13:18:34.830Z,10.00
2018-12-15T13:21:03.468Z,10.00
2018-12-15T13:23:32.312Z,10.10
2018-12-15T13:26:00.979Z,10.10
2018-12-15T13:28:29.657Z,10.10
2018-12-15T13:30:58.293Z,10.20
2018-12-15T13:33:33.860Z,10.10
2018-12-15T13:36:02.771Z,10.10
2018-12-15T13:38:31.473Z,10.10
2018-12-15T13:41:00.033Z,10.00
2018-12-15T13:43:30.300Z,10.00
2018-12-15T13:45:59.150Z,10.00
2018-12-15T13:48:27.784Z,10.10
2018-12-15T13:50:56.420Z,10.00
2018-12-15T13:53:25.143Z,10.00
2018-12-15T13:55:53.860Z,10.00
2018-12-15T13:58:22.706Z,10.00
2018-12-15T14:00:51.355Z,10.00
2018-12-15T14:03:19.989Z,10.10
2018-12-15T14:05:48.557Z,10.00
2018-12-15T14:08:17.222Z,10.00
2018-12-15T14:10:45.897Z,10.00
2018-12-15T14:13:14.657Z,10.00
2018-12-15T14:15:43.363Z,10.00
2018-12-15T14:18:11.966Z,10.10
2018-12-15T14:20:40.559Z,10.10
2018-12-15T14:23:09.465Z,10.10
2018-12-15T14:25:38.297Z,10.10
2018-12-15T14:28:07.130Z,10.10
2018-12-15T14:30:35.628Z,10.10
2018-12-15T14:33:04.328Z,10.10
2018-12-15T14:35:33.035Z,10.00
2018-12-15T14:38:01.674Z,10.00
2018-12-15T14:40:30.296Z,10.00
2018-12-15T14:42:58.864Z,10.00
2018-12-15T14:45:27.580Z,10.00
2018-12-15T14:47:56.213Z,10.00
2018-12-15T14:50:24.848Z,10.00
2018-12-15T14:52:53.414Z,10.00
2018-12-15T14:55:22.075Z,9.90
2018-12-15T14:57:50.757Z,9.80
2018-12-15T15:00:19.650Z,9.90
2018-12-15T15:02:48.417Z,9.80
2018-12-15T15:05:17.053Z,9.80
2018-12-15T15:07:46.170Z,9.80
2018-12-15T15:10:14.629Z,9.80
2018-12-15T15:12:43.352Z,9.80
2018-12-15T15:15:11.919Z,9.80
2018-12-15T15:17:40.427Z,9.80
2018-12-15T15:20:10.150Z,9.90
2018-12-15T15:22:38.681Z,9.80
2018-12-15T15:25:07.512Z,9.90
2018-12-15T15:27:36.127Z,9.90
2018-12-15T15:30:07.505Z,9.80
2018-12-15T15:32:36.367Z,9.90
2018-12-15T15:35:06.425Z,9.90
2018-12-15T15:37:35.083Z,9.90
2018-12-15T15:40:05.131Z,9.90
2018-12-15T15:42:33.778Z,9.90
2018-12-15T15:45:02.495Z,9.90
2018-12-15T15:47:31.038Z,9.90
2018-12-15T15:49:59.765Z,9.90
2018-12-15T15:52:28.372Z,9.80
2018-12-15T15:54:57.039Z,9.80
2018-12-15T15:57:25.671Z,9.70
2018-12-15T15:59:54.225Z,9.70
2018-12-15T16:02:22.940Z,9.70
2018-12-15T16:04:51.689Z,9.70
2018-12-15T16:07:20.333Z,9.60
2018-12-15T16:09:49.420Z,9.60
2018-12-15T16:12:18.072Z,9.60
2018-12-15T16:14:46.590Z,9.50
2018-12-15T16:17:15.539Z,9.40
2018-12-15T16:19:44.264Z,9.40
2018-12-15T16:22:13.133Z,9.30
2018-12-15T16:24:41.797Z,9.30
2018-12-15T16:27:10.476Z,9.30
2018-12-15T16:29:38.979Z,9.20
2018-12-15T16:32:07.673Z,9.30
2018-12-15T16:34:36.381Z,9.30
2018-12-15T16:37:05.134Z,9.30
2018-12-15T16:39:33.849Z,9.30
2018-12-15T16:42:02.487Z,9.30
2018-12-15T16:44:31.121Z,9.20
2018-12-15T16:46:59.558Z,9.00
2018-12-15T16:49:28.457Z,8.90
2018-12-15T16:51:57.188Z,8.80
2018-12-15T16:54:25.780Z,8.70
2018-12-15T16:56:54.496Z,8.60
2018-12-15T16:59:23.128Z,8.60
2018-12-15T17:01:51.684Z,8.60
2018-12-15T17:04:20.401Z,8.50
2018-12-15T17:06:48.968Z,8.40
2018-12-15T17:09:17.584Z,8.40
2018-12-15T17:11:46.109Z,8.40
2018-12-15T17:14:14.747Z,8.50
2018-12-15T17:16:43.235Z,8.40
2018-12-15T17:19:11.978Z,8.30
2018-12-15T17:21:40.650Z,8.30
2018-12-15T17:24:09.286Z,8.40
2018-12-15T17:26:37.837Z,8.20
2018-12-15T17:29:06.558Z,8.10
2018-12-15T17:31:35.117Z,8.20
2018-12-15T17:34:03.827Z,8.20
2018-12-15T17:36:32.466Z,8.10
2018-12-15T17:39:01.294Z,8.00
2018-12-15T17:41:31.365Z,8.00
2018-12-15T17:44:00.138Z,8.10
2018-12-15T17:46:28.701Z,8.10
2018-12-15T17:48:57.213Z,8.10
2018-12-15T17:51:25.849Z,8.10
2018-12-15T17:53:54.351Z,8.20
2018-12-15T17:56:23.088Z,8.30
2018-12-15T17:58:51.757Z,8.10
2018-12-15T18:01:20.296Z,8.30
2018-12-15T18:03:49.024Z,8.30
2018-12-15T18:06:17.581Z,8.30
2018-12-15T18:08:46.274Z,8.20
2018-12-15T18:11:14.841Z,8.10
2018-12-15T18:13:43.567Z,8.00
2018-12-15T18:16:12.125Z,7.90
2018-12-15T18:18:40.839Z,7.90
2018-12-15T18:21:09.948Z,7.90
2018-12-15T18:23:38.776Z,7.90
2018-12-15T18:26:07.529Z,7.90
2018-12-15T18:28:36.165Z,7.80
2018-12-15T18:31:05.193Z,7.90
2018-12-15T18:33:37.022Z,7.90
2018-12-15T18:36:04.564Z,7.90
2018-12-15T18:38:33.132Z,7.90
2018-12-15T18:41:01.703Z,8.00
2018-12-15T18:43:30.532Z,7.90
2018-12-15T18:45:59.335Z,8.00
2018-12-15T18:48:27.874Z,8.10
2018-12-15T18:50:56.830Z,8.20
2018-12-15T18:53:25.467Z,8.30
2018-12-15T18:55:54.122Z,8.50
2018-12-15T18:58:22.671Z,8.60
2018-12-15T19:00:51.571Z,8.70
2018-12-15T19:03:20.279Z,8.70
2018-12-15T19:05:48.946Z,8.80
2018-12-15T19:08:17.542Z,8.70
2018-12-15T19:10:46.311Z,8.80
2018-12-15T19:13:14.873Z,8.80
2018-12-15T19:15:43.578Z,8.70
2018-12-15T19:18:12.412Z,8.70
2018-12-15T19:20:41.050Z,8.80
2018-12-15T19:23:09.878Z,8.90
2018-12-15T19:25:38.434Z,9.00
2018-12-15T19:28:07.126Z,9.00
2018-12-15T19:30:35.783Z,9.00
2018-12-15T19:33:04.614Z,9.10
2018-12-15T19:35:33.250Z,9.00
2018-12-15T19:38:02.084Z,9.10
2018-12-15T19:40:30.721Z,9.00
2018-12-15T19:42:59.549Z,9.10
2018-12-15T19:45:28.148Z,9.00
2018-12-15T19:47:56.821Z,9.00
2018-12-15T19:50:25.653Z,9.00
2018-12-15T19:52:54.294Z,8.90
2018-12-15T19:55:22.924Z,9.00
2018-12-15T19:57:51.628Z,9.10
2018-12-15T20:00:20.299Z,9.00
2018-12-15T20:02:48.942Z,9.00
2018-12-15T20:05:18.224Z,9.10
2018-12-15T20:07:47.096Z,9.10
2018-12-15T20:10:16.019Z,9.20
2018-12-15T20:12:46.198Z,9.20
2018-12-15T20:15:15.530Z,9.10
2018-12-15T20:17:44.181Z,9.10
2018-12-15T20:20:12.816Z,9.10
2018-12-15T20:22:41.647Z,9.00
2018-12-15T20:25:10.400Z,9.00
2018-12-15T20:27:39.114Z,9.00
2018-12-15T20:30:08.110Z,9.10
2018-12-15T20:32:36.649Z,9.10
2018-12-15T20:35:06.003Z,9.10
2018-12-15T20:37:34.564Z,9.10
2018-12-15T20:40:03.277Z,9.10
2018-12-15T20:42:32.070Z,9.20
2018-12-15T20:45:00.741Z,9.20
2018-12-15T20:47:29.377Z,9.20
2018-12-15T20:49:58.514Z,9.30
2018-12-15T20:52:26.965Z,9.30
2018-12-15T20:54:55.784Z,9.30
2018-12-15T20:57:24.422Z,9.30
2018-12-15T20:59:53.147Z,9.30
2018-12-15T21:02:21.778Z,9.30
2018-12-15T21:04:50.611Z,9.40
2018-12-15T21:07:19.245Z,9.40
2018-12-15T21:09:47.881Z,9.40
2018-12-15T21:12:16.387Z,9.40
2018-12-15T21:14:45.189Z,9.40
2018-12-15T21:17:13.983Z,9.40
2018-12-15T21:19:47.808Z,9.30
2018-12-15T21:22:13.522Z,9.30
2018-12-15T21:24:41.963Z,9.30
2018-12-15T21:27:10.627Z,9.30
2018-12-15T21:29:41.866Z,9.20
2018-12-15T21:32:13.867Z,9.20
2018-12-15T21:34:42.688Z,9.20
2018-12-15T21:37:11.624Z,9.20
2018-12-15T21:39:40.351Z,9.20
2018-12-15T21:42:08.931Z,9.20
2018-12-15T21:44:37.556Z,9.20
2018-12-15T21:47:06.218Z,9.20
2018-12-15T21:49:35.286Z,9.20
2018-12-15T21:52:04.029Z,9.20
2018-12-15T21:54:32.823Z,9.20
2018-12-15T21:57:01.585Z,9.20
2018-12-15T21:59:30.154Z,9.20
2018-12-15T22:01:58.917Z,9.20
2018-12-15T22:04:27.664Z,9.20
2018-12-15T22:06:56.323Z,9.20
2018-12-15T22:09:24.959Z,9.20
2018-12-15T22:11:53.668Z,9.20
2018-12-15T22:14:22.434Z,9.20
2018-12-15T22:16:50.976Z,9.20
2018-12-15T22:19:20.162Z,9.20
2018-12-15T22:21:48.791Z,9.10
2018-12-15T22:24:17.277Z,9.20
2018-12-15T22:26:45.996Z,9.20
2018-12-15T22:29:14.630Z,9.20
2018-12-15T22:31:43.266Z,9.20
2018-12-15T22:34:11.901Z,9.30
2018-12-15T22:36:40.733Z,9.30
2018-12-15T22:39:09.563Z,9.30
2018-12-15T22:41:38.127Z,9.30
2018-12-15T22:44:06.835Z,9.30
2018-12-15T22:46:35.338Z,9.30
2018-12-15T22:49:03.825Z,9.40
2018-12-15T22:51:32.517Z,9.30
2018-12-15T22:54:01.179Z,9.30
2018-12-15T22:56:29.777Z,9.40
2018-12-15T22:58:58.451Z,9.40
2018-12-15T23:01:27.186Z,9.30
2018-12-15T23:03:55.917Z,9.30
2018-12-15T23:06:24.553Z,9.30
2018-12-15T23:08:53.115Z,9.30
2018-12-15T23:11:21.824Z,9.30
2018-12-15T23:13:51.049Z,9.20
2018-12-15T23:16:19.839Z,9.20
2018-12-15T23:18:48.515Z,9.10
2018-12-15T23:21:17.018Z,9.10
2018-12-15T23:23:46.050Z,9.10
2018-12-15T23:26:14.810Z,9.10
2018-12-15T23:28:43.350Z,9.10
2018-12-15T23:31:11.887Z,9.00
2018-12-15T23:33:40.435Z,8.90
2018-12-15T23:36:09.161Z,9.00
2018-12-15T23:38:37.722Z,9.00
2018-12-15T23:41:06.501Z,9.00
2018-12-15T23:43:35.071Z,9.00
2018-12-15T23:46:03.699Z,9.00
2018-12-15T23:48:32.335Z,9.00
2018-12-15T23:51:00.881Z,9.00
2018-12-15T23:53:29.802Z,9.00
2018-12-15T23:55:58.365Z,9.00
2018-12-15T23:58:27.073Z,9.00
